Time;durP1;ratioP1;P1;durP2;ratioP2;P2;SDS_P1;SDS_P2;PMS_P1;PMS_P2;Temp;Humidity;BMP_temperature;BMP_pressure;BME280_temperature;BME280_humidity;BME280_pressure;Samples;Min_cycle;Max_cycle;Signal;HPM_P1;HPM_P2
2022/07/31 00:00:11;;;;;;;8.75;3.60;;;;;;;18.78;73.26;101629.47;1030443;28;20047;-82
2022/07/31 00:00:44;;;;;;;5.03;3.70;;;;;;;18.78;73.34;101634.88;1033137;28;20051;-82
2022/07/31 00:01:15;;;;;;;7.15;3.70;;;;;;;18.74;73.53;101633.75;1031903;28;20126;-82
2022/07/31 00:01:47;;;;;;;4.43;3.63;;;;;;;18.69;73.48;101625.59;1030344;28;20046;-82
2022/07/31 00:02:18;;;;;;;7.22;3.80;;;;;;;18.71;73.86;101633.44;1029779;28;20038;-82
2022/07/31 00:02:50;;;;;;;5.78;3.50;;;;;;;18.76;73.48;101631.63;1029170;28;20053;-82
2022/07/31 00:03:22;;;;;;;5.45;3.28;;;;;;;18.66;73.82;101631.50;1028943;28;20050;-82
2022/07/31 00:03:53;;;;;;;2.83;2.63;;;;;;;18.69;74.20;101636.38;1026461;28;20178;-82
2022/07/31 00:04:27;;;;;;;3.83;3.13;;;;;;;18.54;74.11;101636.97;1031320;28;20038;-81
2022/07/31 00:04:58;;;;;;;2.90;2.70;;;;;;;18.56;74.72;101639.41;1019369;29;20043;-82
2022/07/31 00:05:30;;;;;;;6.47;3.60;;;;;;;18.52;74.70;101630.19;1020750;29;20500;-82
2022/07/31 00:06:09;;;;;;;4.85;2.88;;;;;;;18.56;74.54;101623.22;1021926;29;20107;-81
2022/07/31 00:06:42;;;;;;;4.68;2.80;;;;;;;18.60;74.31;101639.72;1022918;28;20048;-82
2022/07/31 00:07:14;;;;;;;3.50;3.10;;;;;;;18.66;74.23;101633.38;1021945;28;20036;-82
2022/07/31 00:07:45;;;;;;;3.40;3.20;;;;;;;18.51;74.77;101631.25;1026453;28;20427;-82
2022/07/31 00:08:17;;;;;;;6.68;2.75;;;;;;;18.46;74.91;101632.00;1026558;28;20047;-82
2022/07/31 00:08:49;;;;;;;10.32;3.10;;;;;;;18.43;74.85;101634.38;1026970;28;20053;-81
2022/07/31 00:09:21;;;;;;;6.38;3.53;;;;;;;18.40;75.30;101635.72;1026573;28;20039;-82
2022/07/31 00:10:12;;;;;;;4.45;3.30;;;;;;;18.49;75.25;101628.81;1030917;28;20078;-82
2022/07/31 00:10:44;;;;;;;4.97;3.08;;;;;;;18.49;74.99;101638.78;1030934;28;20046;-82
2022/07/31 00:11:16;;;;;;;6.78;3.17;;;;;;;18.47;74.97;101630.13;1031514;28;20051;-82
2022/07/31 00:11:48;;;;;;;5.45;3.10;;;;;;;18.41;75.41;101631.13;1030005;28;20499;-82
2022/07/31 00:12:20;;;;;;;2.58;2.42;;;;;;;18.30;76.32;101637.44;1028734;28;20446;-82
2022/07/31 00:12:52;;;;;;;8.93;3.20;;;;;;;18.29;76.62;101643.88;1027226;28;20042;-82
2022/07/31 00:13:23;;;;;;;4.82;2.60;;;;;;;18.31;76.20;101630.97;1028571;28;20045;-82
2022/07/31 00:14:15;;;;;;;3.65;3.00;;;;;;;18.22;76.41;101638.66;1028644;28;20038;-82
2022/07/31 00:14:47;;;;;;;5.15;3.13;;;;;;;18.14;77.11;101631.00;1031412;28;20053;-82
2022/07/31 00:15:20;;;;;;;3.50;3.03;;;;;;;17.99;77.71;101636.97;1031020;28;20038;-82
2022/07/31 00:15:51;;;;;;;2.90;2.70;;;;;;;17.94;77.86;101636.91;1030995;28;20049;-82
2022/07/31 00:16:23;;;;;;;3.50;3.00;;;;;;;17.87;78.68;101633.56;1023698;28;20530;-82
2022/07/31 00:16:56;;;;;;;6.22;3.05;;;;;;;17.87;78.54;101637.06;1024068;28;20039;-82
2022/07/31 00:17:27;;;;;;;3.17;2.55;;;;;;;17.98;78.20;101638.03;1028122;28;20043;-82
2022/07/31 00:17:59;;;;;;;4.13;3.75;;;;;;;17.91;78.38;101634.69;1030318;28;20502;-82
2022/07/31 00:18:32;;;;;;;4.30;3.63;;;;;;;17.88;78.63;101633.31;1035205;28;20057;-82
2022/07/31 00:19:05;;;;;;;4.32;3.25;;;;;;;17.96;78.62;101632.06;1031665;28;20060;-82
2022/07/31 00:19:37;;;;;;;3.58;3.35;;;;;;;17.95;78.29;101635.84;1024002;29;20054;-82
2022/07/31 00:20:13;;;;;;;6.15;2.72;;;;;;;17.94;78.41;101634.19;1016090;29;20052;-82
2022/07/31 00:20:44;;;;;;;3.60;3.20;;;;;;;17.72;79.15;101633.28;1019968;29;20048;-82
2022/07/31 00:21:17;;;;;;;3.35;3.05;;;;;;;17.73;79.47;101637.63;1021935;28;20512;-82
2022/07/31 00:21:49;;;;;;;4.47;2.95;;;;;;;17.72;80.07;101633.28;1023810;29;20539;-82
2022/07/31 00:22:21;;;;;;;3.08;2.42;;;;;;;17.70;80.55;101630.84;1025179;28;20480;-82
2022/07/31 00:22:53;;;;;;;5.55;2.97;;;;;;;17.72;80.26;101638.69;1027446;28;20073;-82
2022/07/31 00:23:25;;;;;;;3.70;3.38;;;;;;;17.76;79.99;101634.44;1028354;28;20411;-82
2022/07/31 00:23:56;;;;;;;3.38;2.63;;;;;;;17.72;79.99;101630.59;1027644;28;20054;-82
2022/07/31 00:24:28;;;;;;;4.88;2.83;;;;;;;17.70;80.69;101632.72;1027986;28;20047;-82
2022/07/31 00:25:00;;;;;;;4.28;2.95;;;;;;;17.66;80.75;101626.16;1034588;28;20045;-82
2022/07/31 00:25:32;;;;;;;6.63;2.55;;;;;;;17.54;80.86;101627.06;1035398;28;20045;-82
2022/07/31 00:26:03;;;;;;;3.65;3.15;;;;;;;17.50;81.12;101628.59;1033070;28;20046;-82
2022/07/31 00:26:35;;;;;;;3.35;3.10;;;;;;;17.43;81.77;101625.22;1033425;28;20052;-82
2022/07/31 00:27:09;;;;;;;3.40;2.75;;;;;;;17.42;81.56;101634.38;1023509;28;20086;-82
2022/07/31 00:27:41;;;;;;;5.88;3.00;;;;;;;17.43;81.65;101625.22;1023361;29;20050;-82
2022/07/31 00:28:13;;;;;;;5.32;3.60;;;;;;;17.52;81.59;101626.47;1020335;29;20531;-82
2022/07/31 00:28:46;;;;;;;8.43;2.83;;;;;;;17.48;81.42;101622.63;1019784;29;20078;-82
2022/07/31 00:29:18;;;;;;;3.22;2.90;;;;;;;17.58;80.83;101628.22;1020035;29;20047;-82
2022/07/31 00:29:49;;;;;;;2.70;2.50;;;;;;;17.58;80.36;101619.31;1016013;29;20047;-82
2022/07/31 00:30:21;;;;;;;9.20;3.00;;;;;;;17.52;80.83;101623.75;1020884;28;20050;-82
2022/07/31 00:30:53;;;;;;;3.00;2.80;;;;;;;17.54;80.58;101624.38;1024694;28;20043;-82
2022/07/31 00:31:24;;;;;;;3.40;3.10;;;;;;;17.57;80.54;101626.56;1027167;28;20090;-82
2022/07/31 00:31:56;;;;;;;2.88;2.65;;;;;;;17.65;80.55;101621.84;1031448;28;20061;-82
2022/07/31 00:32:27;;;;;;;5.28;3.22;;;;;;;17.68;80.11;101626.75;1023428;29;20044;-81
2022/07/31 00:32:59;;;;;;;4.30;2.85;;;;;;;17.73;80.33;101621.47;1027605;28;20047;-82
2022/07/31 00:33:31;;;;;;;13.18;3.65;;;;;;;17.76;80.06;101618.25;1029059;28;20414;-82
2022/07/31 00:34:02;;;;;;;6.85;3.40;;;;;;;17.77;79.68;101622.59;1027882;28;20649;-82
2022/07/31 00:34:34;;;;;;;3.22;2.88;;;;;;;17.72;79.82;101617.13;1031811;28;20053;-82
2022/07/31 00:35:06;;;;;;;3.50;2.88;;;;;;;17.70;79.57;101619.25;1029764;28;20050;-82
2022/07/31 00:35:38;;;;;;;4.65;2.85;;;;;;;17.66;79.79;101618.09;1023937;28;20047;-82
2022/07/31 00:36:10;;;;;;;4.22;2.83;;;;;;;17.70;79.46;101613.88;1024462;28;20054;-82
2022/07/31 00:36:42;;;;;;;4.15;2.92;;;;;;;17.61;79.79;101616.94;1028333;28;20058;-82
2022/07/31 00:37:14;;;;;;;7.47;2.83;;;;;;;17.61;79.53;101613.44;1031875;28;20461;-82
2022/07/31 00:37:46;;;;;;;3.25;2.90;;;;;;;17.61;79.80;101616.94;1027671;28;20035;-82
2022/07/31 00:38:18;;;;;;;5.10;2.75;;;;;;;17.52;79.87;101618.38;1019629;29;20065;-82
2022/07/31 00:38:58;;;;;;;4.82;2.97;;;;;;;17.54;80.58;101620.84;1018847;29;20146;-82
2022/07/31 00:39:29;;;;;;;3.03;2.72;;;;;;;17.56;80.43;101616.84;1021177;29;20556;-82
2022/07/31 00:40:05;;;;;;;4.18;3.10;;;;;;;17.57;79.96;101613.09;1027194;28;20046;-82
2022/07/31 00:40:45;;;;;;;4.07;2.90;;;;;;;17.47;80.86;101612.09;1030573;28;20050;-82
2022/07/31 00:41:17;;;;;;;3.45;2.55;;;;;;;17.46;80.41;101613.97;1030025;28;20034;-82
2022/07/31 00:41:48;;;;;;;5.57;3.05;;;;;;;17.53;80.77;101609.28;1027073;28;20509;-82
2022/07/31 00:42:22;;;;;;;3.67;3.00;;;;;;;17.58;81.03;101611.22;1024511;28;20103;-82
2022/07/31 00:42:53;;;;;;;4.82;3.22;;;;;;;17.59;80.69;101619.06;1020848;29;20134;-82
2022/07/31 00:43:25;;;;;;;4.10;3.08;;;;;;;17.56;81.13;101608.78;1019325;29;20044;-82
2022/07/31 00:44:01;;;;;;;4.60;2.63;;;;;;;17.63;80.89;101608.59;1020772;29;20048;-82
2022/07/31 00:44:34;;;;;;;5.22;2.90;;;;;;;17.52;80.35;101607.59;1024542;28;20043;-82
2022/07/31 00:45:09;;;;;;;3.00;2.70;;;;;;;17.60;80.52;101604.53;1029368;28;20122;-82
2022/07/31 00:45:44;;;;;;;5.53;2.92;;;;;;;17.64;80.41;101604.03;1036030;28;20042;-82
2022/07/31 00:46:19;;;;;;;3.95;3.00;;;;;;;17.63;80.33;101603.22;1031730;28;20058;-82
2022/07/31 00:46:53;;;;;;;5.22;3.25;;;;;;;17.54;80.88;101610.91;1029364;28;20042;-82
2022/07/31 00:47:26;;;;;;;5.18;3.17;;;;;;;17.54;80.88;101602.81;1024026;28;20039;-81
2022/07/31 00:47:57;;;;;;;3.72;2.30;;;;;;;17.65;80.21;101608.38;1022884;28;20039;-82
2022/07/31 00:48:30;;;;;;;3.42;3.08;;;;;;;17.63;80.60;101602.41;1026501;28;20051;-82
2022/07/31 00:49:03;;;;;;;6.55;3.03;;;;;;;17.69;80.69;101607.66;1029607;28;20200;-82
2022/07/31 00:49:34;;;;;;;7.55;2.80;;;;;;;17.58;80.25;101595.06;1029208;28;20068;-82
2022/07/31 00:50:09;;;;;;;5.95;3.47;;;;;;;17.72;79.94;101595.56;1029185;28;20042;-82
2022/07/31 00:50:41;;;;;;;2.78;2.58;;;;;;;17.72;80.21;101600.97;1028313;28;20051;-82
2022/07/31 00:51:12;;;;;;;4.57;3.13;;;;;;;17.74;80.52;101598.84;1028256;28;20042;-82
2022/07/31 00:51:46;;;;;;;4.25;3.08;;;;;;;17.77;80.44;101598.34;1027797;28;20058;-82
2022/07/31 00:52:19;;;;;;;5.75;2.83;;;;;;;17.80;80.83;101592.47;1027250;28;20442;-82
2022/07/31 00:52:50;;;;;;;8.68;2.92;;;;;;;17.83;80.90;101592.00;1031802;28;20047;-82
2022/07/31 00:53:22;;;;;;;2.95;2.63;;;;;;;17.88;80.37;101594.75;1027075;28;20050;-82
2022/07/31 00:53:54;;;;;;;4.47;2.95;;;;;;;17.92;80.67;101595.91;1029017;28;20406;-82
2022/07/31 00:54:25;;;;;;;3.83;2.55;;;;;;;17.90;80.46;101592.63;1024835;28;20627;-82
2022/07/31 00:54:57;;;;;;;3.17;2.88;;;;;;;17.92;80.57;101587.81;1024247;28;20052;-82
2022/07/31 00:55:29;;;;;;;8.38;2.78;;;;;;;17.94;79.99;101588.38;1023840;28;20042;-82
2022/07/31 00:56:12;;;;;;;6.57;2.83;;;;;;;17.89;80.30;101596.38;1026045;28;20048;-82
2022/07/31 00:56:43;;;;;;;2.53;2.22;;;;;;;17.88;80.11;101584.78;1025943;28;20047;-82
2022/07/31 00:57:15;;;;;;;3.38;2.65;;;;;;;17.89;80.16;101591.00;1023193;28;20529;-82
2022/07/31 00:57:47;;;;;;;4.15;3.03;;;;;;;17.86;79.24;101586.09;1025660;28;20043;-82
2022/07/31 00:58:19;;;;;;;2.90;2.58;;;;;;;17.92;79.25;101591.31;1024321;28;20043;-82
2022/07/31 00:58:50;;;;;;;6.30;3.00;;;;;;;17.98;78.88;101586.81;1024213;28;20066;-82
2022/07/31 00:59:22;;;;;;;2.60;2.40;;;;;;;17.97;78.85;101587.88;1027624;28;20043;-82
2022/07/31 00:59:55;;;;;;;5.03;2.40;;;;;;;18.00;78.83;101584.69;1028232;28;20438;-81
2022/07/31 01:00:27;;;;;;;3.17;2.60;;;;;;;17.98;79.45;101589.50;1027801;28;20506;-82
2022/07/31 01:00:59;;;;;;;6.18;3.35;;;;;;;18.02;79.30;101587.94;1028323;28;20039;-82
2022/07/31 01:01:31;;;;;;;3.42;2.75;;;;;;;18.07;79.20;101590.72;1034150;28;20111;-81
2022/07/31 01:02:03;;;;;;;3.65;3.10;;;;;;;18.09;78.63;101585.91;1035944;28;20117;-82
2022/07/31 01:02:36;;;;;;;3.45;3.15;;;;;;;18.13;78.32;101584.34;1035370;28;20046;-82
2022/07/31 01:03:17;;;;;;;3.47;3.00;;;;;;;17.95;78.70;101581.91;1033356;28;20414;-82
2022/07/31 01:03:49;;;;;;;2.63;2.40;;;;;;;17.92;79.37;101585.94;1029639;28;20038;-82
2022/07/31 01:04:21;;;;;;;3.33;2.83;;;;;;;18.03;79.04;101586.06;1029330;28;20046;-81
2022/07/31 01:04:53;;;;;;;3.58;3.28;;;;;;;18.05;78.85;101590.16;1023724;28;20491;-82
2022/07/31 01:05:24;;;;;;;2.75;2.55;;;;;;;17.98;79.59;101578.72;1027295;28;20042;-82
2022/07/31 01:05:56;;;;;;;4.05;2.70;;;;;;;17.97;79.84;101593.28;1031695;28;20050;-82
2022/07/31 01:06:27;;;;;;;3.30;2.97;;;;;;;17.97;79.76;101582.50;1028077;28;20042;-82
2022/07/31 01:06:59;;;;;;;2.60;2.40;;;;;;;18.03;79.37;101584.19;1026857;28;20043;-82
2022/07/31 01:07:32;;;;;;;3.50;3.20;;;;;;;18.05;78.59;101583.94;1023254;29;20191;-82
2022/07/31 01:08:04;;;;;;;4.75;2.80;;;;;;;18.07;78.38;101577.22;1021537;29;20036;-82
2022/07/31 01:08:35;;;;;;;4.07;2.60;;;;;;;18.10;78.25;101582.16;1027164;28;20046;-82
2022/07/31 01:09:07;;;;;;;3.42;2.92;;;;;;;18.20;77.75;101578.78;1027163;28;20042;-82
2022/07/31 01:09:39;;;;;;;2.67;2.47;;;;;;;18.14;78.35;101583.28;1024154;28;20047;-82
2022/07/31 01:10:13;;;;;;;3.08;2.78;;;;;;;18.07;78.73;101581.81;1026706;28;20577;-82
2022/07/31 01:10:49;;;;;;;3.38;2.45;;;;;;;18.10;78.76;101592.13;1028383;28;20043;-82
2022/07/31 01:11:57;;;;;;;2.67;2.47;;;;;;;18.08;79.16;101588.84;1032043;28;20079;-82
2022/07/31 01:12:34;;;;;;;6.40;2.47;;;;;;;18.15;78.71;101584.09;1017204;29;20052;-82
2022/07/31 01:13:14;;;;;;;7.43;3.05;;;;;;;18.19;78.06;101583.34;1017477;29;20503;-82
2022/07/31 01:14:05;;;;;;;3.30;3.00;;;;;;;18.19;78.83;101585.25;1029970;28;20050;-82
2022/07/31 01:14:39;;;;;;;4.07;2.63;;;;;;;18.10;78.82;101584.84;1027307;28;20520;-82
2022/07/31 01:15:12;;;;;;;7.70;2.50;;;;;;;18.13;78.49;101588.94;1031388;28;20042;-82
2022/07/31 01:15:44;;;;;;;3.83;3.40;;;;;;;18.14;78.41;101588.69;1027308;28;20483;-82
2022/07/31 01:16:17;;;;;;;5.28;3.03;;;;;;;18.17;78.10;101585.50;1023394;28;20047;-82
2022/07/31 01:16:50;;;;;;;2.92;2.70;;;;;;;18.19;77.61;101590.63;1023572;28;20388;-82
2022/07/31 01:17:24;;;;;;;3.35;2.88;;;;;;;18.13;78.74;101581.66;1021766;28;20526;-82
2022/07/31 01:17:57;;;;;;;3.88;2.45;;;;;;;18.14;78.69;101587.88;1015904;29;20052;-82
2022/07/31 01:18:30;;;;;;;2.70;2.50;;;;;;;18.05;79.91;101586.63;1023424;29;20047;-82
2022/07/31 01:19:11;;;;;;;3.33;2.95;;;;;;;18.17;78.70;101588.19;1024527;28;20543;-82
2022/07/31 01:19:44;;;;;;;4.93;3.50;;;;;;;18.19;78.35;101586.06;1019851;29;20559;-81
2022/07/31 01:20:19;;;;;;;3.47;2.80;;;;;;;18.10;78.52;101590.25;1017787;29;20550;-82
2022/07/31 01:20:51;;;;;;;6.53;3.20;;;;;;;17.98;78.88;101589.50;1017885;29;20052;-82
2022/07/31 01:21:28;;;;;;;4.95;3.10;;;;;;;18.02;79.38;101590.66;1014188;29;20052;-82
2022/07/31 01:22:16;;;;;;;3.83;2.65;;;;;;;18.08;79.29;101588.84;1018780;29;20100;-82
2022/07/31 01:23:15;;;;;;;2.78;2.58;;;;;;;18.03;79.96;101589.59;1024867;28;20045;-82
2022/07/31 01:24:37;;;;;;;5.30;2.60;;;;;;;18.02;79.63;101585.25;1030986;28;20129;-82
2022/07/31 01:25:31;;;;;;;6.32;3.28;;;;;;;18.09;79.38;101587.81;1035589;28;20045;-81
2022/07/31 01:26:16;;;;;;;3.08;2.83;;;;;;;18.03;79.43;101588.75;1033667;28;20417;-82
2022/07/31 01:27:09;;;;;;;4.63;3.53;;;;;;;18.01;79.01;101589.00;1031109;28;20521;-81
2022/07/31 01:28:09;;;;;;;3.63;2.95;;;;;;;17.88;79.20;101590.19;1027611;28;20054;-82
2022/07/31 01:28:52;;;;;;;3.13;2.53;;;;;;;17.86;79.04;101586.09;1028994;28;20097;-82
2022/07/31 01:29:32;;;;;;;4.28;3.45;;;;;;;17.96;79.21;101585.44;1025880;28;20121;-82
2022/07/31 01:30:04;;;;;;;3.20;2.90;;;;;;;17.95;78.86;101584.63;1019267;29;20179;-81
2022/07/31 01:31:01;;;;;;;3.63;2.50;;;;;;;17.89;79.61;101591.00;1022138;29;20094;-82
2022/07/31 01:32:00;;;;;;;2.70;2.50;;;;;;;17.92;79.00;101585.13;1024143;28;20130;-81
2022/07/31 01:32:37;;;;;;;4.22;3.00;;;;;;;17.90;79.15;101587.25;1030225;28;20481;-82
2022/07/31 01:33:17;;;;;;;4.18;3.30;;;;;;;17.93;78.69;101586.75;1023405;29;20534;-82
2022/07/31 01:33:51;;;;;;;4.40;2.72;;;;;;;17.88;78.90;101583.97;1023343;29;20039;-81
2022/07/31 01:34:47;;;;;;;3.42;3.08;;;;;;;17.94;79.61;101583.00;1029633;28;20051;-81
2022/07/31 01:35:26;;;;;;;3.10;2.53;;;;;;;17.69;80.24;101579.91;1031684;28;20038;-82
2022/07/31 01:36:04;;;;;;;3.08;2.47;;;;;;;17.58;81.03;101579.72;1024967;28;20054;-82
2022/07/31 01:36:38;;;;;;;4.75;2.83;;;;;;;17.56;81.42;101587.22;1023150;29;20055;-82
2022/07/31 01:37:19;;;;;;;2.58;2.28;;;;;;;17.48;81.43;101573.31;1029416;28;20043;-82
2022/07/31 01:37:57;;;;;;;2.97;2.70;;;;;;;17.58;81.16;101577.03;1030021;28;20042;-82
2022/07/31 01:38:34;;;;;;;3.67;3.10;;;;;;;17.66;80.24;101581.19;1031402;28;20082;-82
2022/07/31 01:39:05;;;;;;;3.60;2.78;;;;;;;17.69;79.80;101574.50;1027029;28;20514;-82
2022/07/31 01:39:42;;;;;;;6.28;3.13;;;;;;;17.64;79.70;101572.53;1013252;29;20474;-82
2022/07/31 01:40:17;;;;;;;4.97;3.25;;;;;;;17.60;79.78;101569.50;1015562;29;20048;-82
2022/07/31 01:40:58;;;;;;;2.92;2.50;;;;;;;17.63;80.29;101570.06;1015115;29;20551;-82
2022/07/31 01:41:34;;;;;;;5.75;2.67;;;;;;;17.59;80.27;101565.19;1025875;28;20046;-82
2022/07/31 01:42:07;;;;;;;3.67;2.90;;;;;;;17.61;80.08;101564.94;1019897;28;20047;-82
2022/07/31 01:42:54;;;;;;;5.45;2.70;;;;;;;17.60;80.45;101561.41;1018354;29;20048;-82
2022/07/31 01:43:39;;;;;;;6.22;3.67;;;;;;;17.64;79.76;101571.72;1023655;29;20515;-82
2022/07/31 01:44:12;;;;;;;7.63;2.78;;;;;;;17.68;79.77;101564.78;1023706;28;20063;-82
2022/07/31 01:44:47;;;;;;;8.80;2.95;;;;;;;17.68;79.30;101567.50;1027739;28;20577;-82
2022/07/31 01:45:19;;;;;;;4.82;3.00;;;;;;;17.68;79.21;101562.09;1019265;29;20048;-82
2022/07/31 01:45:55;;;;;;;3.70;2.72;;;;;;;17.67;78.96;101563.13;1020223;29;20039;-82
2022/07/31 01:46:29;;;;;;;4.43;3.83;;;;;;;17.64;79.45;101561.75;1020709;29;20397;-82
2022/07/31 01:47:11;;;;;;;4.07;3.33;;;;;;;17.58;79.95;101560.84;1020715;29;20134;-82
2022/07/31 01:47:44;;;;;;;5.22;3.95;;;;;;;17.65;79.45;101563.38;1022879;29;20091;-81
2022/07/31 01:48:17;;;;;;;3.72;3.40;;;;;;;17.54;79.64;101561.59;1019639;29;20508;-81
2022/07/31 01:48:49;;;;;;;3.70;3.13;;;;;;;17.63;79.28;101559.28;1017354;29;20054;-82
2022/07/31 01:49:24;;;;;;;4.50;2.88;;;;;;;17.58;79.47;101563.56;1018965;29;20499;-82
2022/07/31 01:49:57;;;;;;;3.97;3.60;;;;;;;17.45;79.77;101563.84;1023264;28;20043;-81
2022/07/31 01:50:29;;;;;;;4.10;2.80;;;;;;;17.45;80.04;101561.16;1017587;29;20427;-81
2022/07/31 01:51:15;;;;;;;4.25;3.60;;;;;;;17.48;79.80;101557.97;1018628;29;20416;-82
2022/07/31 01:51:47;;;;;;;4.25;3.03;;;;;;;17.37;80.08;101558.88;1023169;29;20074;-81
2022/07/31 01:52:20;;;;;;;4.18;2.85;;;;;;;17.37;80.30;101556.19;1021479;29;20066;-82
2022/07/31 01:52:53;;;;;;;3.15;2.92;;;;;;;17.44;80.29;101561.41;1023189;28;20051;-82
2022/07/31 01:53:25;;;;;;;4.05;3.42;;;;;;;17.44;79.79;101556.84;1019909;29;20043;-82
2022/07/31 01:53:59;;;;;;;6.63;3.10;;;;;;;17.46;79.76;101559.28;1026077;28;20503;-82
2022/07/31 01:54:32;;;;;;;7.03;3.53;;;;;;;17.38;80.16;101549.75;1026876;28;20071;-82
2022/07/31 01:55:05;;;;;;;2.88;2.67;;;;;;;17.35;80.33;101552.94;1023254;29;20531;-82
2022/07/31 01:55:38;;;;;;;4.00;2.80;;;;;;;17.34;80.35;101558.56;1025807;28;20047;-82
2022/07/31 01:56:31;;;;;;;3.92;2.85;;;;;;;17.36;80.36;101557.25;1023146;28;20043;-82
2022/07/31 01:57:03;;;;;;;4.30;3.20;;;;;;;17.36;80.10;101554.56;1019679;29;20044;-82
2022/07/31 01:57:40;;;;;;;3.58;3.28;;;;;;;17.35;80.55;101555.63;1017188;29;20068;-81
2022/07/31 01:58:12;;;;;;;6.38;3.03;;;;;;;17.31;80.79;101557.16;1019292;29;20507;-82
2022/07/31 01:58:46;;;;;;;3.67;2.92;;;;;;;17.25;80.59;101558.13;1023031;28;20512;-82
2022/07/31 01:59:41;;;;;;;5.18;3.20;;;;;;;17.19;81.16;101559.91;1019636;29;20052;-82
2022/07/31 02:00:22;;;;;;;5.78;3.65;;;;;;;17.08;81.68;101558.09;1018902;29;20044;-82
2022/07/31 02:01:07;;;;;;;3.95;2.85;;;;;;;16.99;81.94;101560.38;1025699;28;20043;-82
2022/07/31 02:01:42;;;;;;;3.28;2.97;;;;;;;16.81;82.74;101563.25;1030831;28;20055;-82
2022/07/31 02:02:17;;;;;;;4.80;3.33;;;;;;;16.82;82.88;101558.69;1023953;28;20114;-82
2022/07/31 02:02:50;;;;;;;5.13;3.30;;;;;;;16.93;82.89;101558.63;1025554;28;20046;-82
2022/07/31 02:03:25;;;;;;;3.58;3.30;;;;;;;16.88;83.09;101558.53;1025604;28;20496;-82
2022/07/31 02:04:17;;;;;;;4.97;3.45;;;;;;;16.98;82.88;101553.38;1021264;28;20454;-81
2022/07/31 02:04:50;;;;;;;6.03;4.00;;;;;;;17.07;82.43;101561.03;1019032;29;20439;-82
2022/07/31 02:05:22;;;;;;;4.88;3.30;;;;;;;17.05;82.05;101552.38;1022810;29;20058;-81
2022/07/31 02:05:54;;;;;;;4.97;3.10;;;;;;;16.98;81.97;101563.28;1026302;28;20063;-82
2022/07/31 02:06:26;;;;;;;3.63;3.28;;;;;;;17.03;81.98;101555.31;1027434;28;20086;-82
2022/07/31 02:07:01;;;;;;;3.47;3.28;;;;;;;16.99;81.73;101560.38;1026969;28;20069;-82
2022/07/31 02:07:35;;;;;;;3.88;3.42;;;;;;;16.93;82.17;101558.63;1018012;29;20044;-82
2022/07/31 02:08:08;;;;;;;4.57;3.10;;;;;;;16.92;82.25;101559.69;1017235;29;20047;-82
2022/07/31 02:08:48;;;;;;;4.65;3.42;;;;;;;16.88;82.49;101553.16;1013387;29;20062;-82
2022/07/31 02:09:22;;;;;;;3.10;2.72;;;;;;;16.90;82.53;101556.41;1021521;29;20048;-82
2022/07/31 02:09:54;;;;;;;7.22;3.30;;;;;;;16.94;82.47;101554.88;1026980;28;20049;-82
2022/07/31 02:10:36;;;;;;;4.43;3.38;;;;;;;16.90;82.68;101559.13;1027474;28;20039;-82
2022/07/31 02:11:08;;;;;;;4.97;3.88;;;;;;;16.89;83.01;101554.78;1022362;29;20043;-82
2022/07/31 02:11:40;;;;;;;6.20;3.47;;;;;;;16.92;82.92;101557.00;1019117;29;20054;-82
2022/07/31 02:12:25;;;;;;;4.90;2.95;;;;;;;16.93;82.60;101558.63;1025678;28;20066;-82
2022/07/31 02:13:05;;;;;;;3.55;3.20;;;;;;;16.90;82.74;101553.72;1025187;28;20043;-82
2022/07/31 02:13:38;;;;;;;3.25;2.95;;;;;;;16.89;82.52;101560.16;1023155;28;20118;-81
2022/07/31 02:14:10;;;;;;;13.23;4.88;;;;;;;16.79;82.93;101551.09;1019009;29;20183;-82
2022/07/31 02:14:42;;;;;;;9.02;3.55;;;;;;;16.67;83.71;101551.94;1019558;29;20048;-82
2022/07/31 02:15:15;;;;;;;3.08;2.85;;;;;;;16.62;84.05;101554.50;1016016;29;20047;-82
2022/07/31 02:15:49;;;;;;;3.40;3.10;;;;;;;16.54;84.37;101554.88;1014098;29;20438;-82
2022/07/31 02:16:24;;;;;;;5.50;3.40;;;;;;;16.48;84.63;101555.03;1022419;29;20047;-82
2022/07/31 02:17:04;;;;;;;4.43;4.00;;;;;;;16.52;85.00;101557.00;1023058;29;20043;-83
2022/07/31 02:17:59;;;;;;;4.82;3.25;;;;;;;16.53;85.02;101550.56;1020250;28;20067;-83
2022/07/31 02:18:41;;;;;;;4.45;4.03;;;;;;;16.51;85.36;101563.44;1022534;28;20058;-83
2022/07/31 02:19:24;;;;;;;9.05;4.53;;;;;;;16.61;84.94;101557.44;1025783;28;20071;-83
2022/07/31 02:19:57;;;;;;;4.45;4.03;;;;;;;16.64;84.09;101551.56;1027010;28;20093;-83
2022/07/31 02:20:32;;;;;;;3.58;3.28;;;;;;;16.67;83.84;101545.75;1027840;28;20050;-83
2022/07/31 02:21:03;;;;;;;5.03;2.88;;;;;;;16.71;83.44;101552.31;1026876;28;20049;-83
2022/07/31 02:21:35;;;;;;;5.38;3.65;;;;;;;16.72;83.60;101553.94;1023581;29;20046;-83
2022/07/31 02:22:07;;;;;;;6.00;4.18;;;;;;;16.71;83.34;101546.06;1026230;28;20085;-83
2022/07/31 02:22:38;;;;;;;6.10;3.72;;;;;;;16.75;83.39;101548.06;1027529;28;20035;-83
2022/07/31 02:23:10;;;;;;;4.80;3.20;;;;;;;16.78;83.68;101552.97;1027013;28;20403;-83
2022/07/31 02:23:42;;;;;;;4.32;3.28;;;;;;;16.76;83.70;101548.88;1027634;28;20162;-83
2022/07/31 02:24:16;;;;;;;4.72;3.47;;;;;;;16.82;83.28;101542.53;1026868;28;20043;-83
2022/07/31 02:24:48;;;;;;;3.33;3.00;;;;;;;16.78;83.51;101549.47;1024073;28;20035;-83
2022/07/31 02:25:19;;;;;;;3.67;3.28;;;;;;;16.82;83.36;101553.31;1024456;28;20051;-83
2022/07/31 02:25:51;;;;;;;6.45;3.05;;;;;;;16.81;83.29;101544.41;1019161;29;20077;-83
2022/07/31 02:26:24;;;;;;;3.90;3.58;;;;;;;16.83;83.04;101550.38;1023480;28;20039;-83
2022/07/31 02:26:56;;;;;;;3.47;3.15;;;;;;;16.82;82.91;101548.75;1025249;28;20049;-83
2022/07/31 02:27:29;;;;;;;3.40;3.13;;;;;;;16.82;83.39;101550.63;1023275;29;20043;-83
2022/07/31 02:28:21;;;;;;;4.65;3.38;;;;;;;16.81;83.17;101551.69;1025426;28;20039;-83
2022/07/31 02:28:52;;;;;;;5.15;3.40;;;;;;;16.84;83.14;101552.00;1019337;29;20733;-83
2022/07/31 02:29:24;;;;;;;4.20;3.17;;;;;;;16.75;83.54;101553.47;1023811;28;20035;-83
2022/07/31 02:29:58;;;;;;;3.70;3.40;;;;;;;16.79;83.80;101543.84;1025296;28;20045;-83
2022/07/31 02:30:31;;;;;;;3.03;2.83;;;;;;;16.81;83.46;101547.09;1023889;28;20047;-82
2022/07/31 02:31:14;;;;;;;3.13;2.88;;;;;;;16.86;83.59;101543.69;1027196;28;20039;-83
2022/07/31 02:31:49;;;;;;;6.68;3.47;;;;;;;16.81;83.18;101547.09;1022886;29;20043;-82
2022/07/31 02:32:34;;;;;;;7.38;3.30;;;;;;;16.82;83.70;101546.06;1013739;29;20128;-82
2022/07/31 02:33:09;;;;;;;3.35;3.03;;;;;;;16.90;83.36;101550.22;1014198;29;20048;-82
2022/07/31 02:33:44;;;;;;;4.38;3.50;;;;;;;16.88;83.70;101547.78;1010970;29;20168;-82
2022/07/31 02:34:16;;;;;;;3.45;2.83;;;;;;;16.94;83.15;101548.69;1007445;29;20073;-82
2022/07/31 02:34:48;;;;;;;3.92;3.25;;;;;;;16.97;83.56;101550.88;1015222;29;20825;-82
2022/07/31 02:35:21;;;;;;;4.63;2.85;;;;;;;17.02;83.34;101542.94;1021330;29;20055;-82
2022/07/31 02:35:54;;;;;;;5.57;3.50;;;;;;;17.01;83.01;101548.56;1020971;28;20048;-82
2022/07/31 02:36:28;;;;;;;5.32;3.63;;;;;;;17.04;82.79;101550.75;1022126;29;20047;-82
2022/07/31 02:37:00;;;;;;;3.25;2.58;;;;;;;17.02;82.54;101548.31;1019508;29;20044;-82
2022/07/31 02:37:34;;;;;;;5.45;3.28;;;;;;;16.99;82.85;101549.63;1016341;29;20389;-82
2022/07/31 02:38:06;;;;;;;11.80;3.83;;;;;;;16.92;83.71;101548.91;1022994;29;20043;-82
2022/07/31 02:38:49;;;;;;;4.10;3.13;;;;;;;16.91;83.63;101547.28;1015280;29;20051;-82
2022/07/31 02:39:21;;;;;;;4.22;3.35;;;;;;;16.92;83.90;101554.31;1018652;29;20488;-82
2022/07/31 02:39:59;;;;;;;3.83;3.20;;;;;;;16.75;84.58;101547.25;1022503;29;20518;-82
2022/07/31 02:40:30;;;;;;;4.38;3.30;;;;;;;16.85;84.09;101536.69;1024676;28;20438;-82
2022/07/31 02:41:03;;;;;;;7.15;3.60;;;;;;;16.91;83.46;101544.59;1020950;29;20439;-83
2022/07/31 02:41:35;;;;;;;3.83;3.38;;;;;;;16.83;83.45;101545.00;1017547;29;20503;-82
2022/07/31 02:42:07;;;;;;;12.13;4.18;;;;;;;16.99;83.22;101544.22;1011298;29;20048;-82
2022/07/31 02:42:40;;;;;;;5.10;3.60;;;;;;;17.03;82.73;101533.78;1013275;29;20096;-82
2022/07/31 02:43:12;;;;;;;3.70;3.40;;;;;;;17.06;82.23;101543.25;1017592;29;20044;-82
2022/07/31 02:43:45;;;;;;;3.33;3.13;;;;;;;17.02;82.26;101542.13;1020058;29;20098;-82